Time;durP1;ratioP1;P1;durP2;ratioP2;P2;SDS_P1;SDS_P2;PMS_P1;PMS_P2;Temp;Humidity;BMP_temperature;BMP_pressure;BME280_temperature;BME280_humidity;BME280_pressure;Samples;Min_cycle;Max_cycle;Signal;HPM_P1;HPM_P2
2019/06/05 00:00:05;;;;;;;7.3;6.4;;;;;;;16.27;80.56641;953.2051;;;;
2019/06/05 00:02:30;;;;;;;7.1;6.4;;;;;;;16.24;80.08203;953.2093;;;;
2019/06/05 00:04:53;;;;;;;7.8;7;;;;;;;16.12;80.58496;953.1956;;;;
2019/06/05 00:07:18;;;;;;;7.6;6.8;;;;;;;16.06;80.29297;953.2347;;;;
2019/06/05 00:09:43;;;;;;;7.4;6.7;;;;;;;16.01;80.77539;953.2073;;;;
2019/06/05 00:12:08;;;;;;;8.3;7.4;;;;;;;15.97;82.66992;953.2603;;;;
2019/06/05 00:14:36;;;;;;;8.7;7.8;;;;;;;15.93;83.66992;953.1573;;;;
2019/06/05 00:17:02;;;;;;;8.6;7.6;;;;;;;15.98;82.73145;953.1857;;;;
2019/06/05 00:19:27;;;;;;;9.1;7.4;;;;;;;15.92;83.14063;953.1297;;;;
2019/06/05 00:22:03;;;;;;;7.4;6.7;;;;;;;15.94;82.67871;953.1604;;;;
2019/06/05 00:24:20;;;;;;;7.9;7.2;;;;;;;15.91;82.48438;953.1735;;;;
2019/06/05 00:26:45;;;;;;;8;7.2;;;;;;;15.85;82.20801;953.1125;;;;
2019/06/05 00:29:10;;;;;;;7.7;7;;;;;;;15.78;82.23926;953.1139;;;;
2019/06/05 00:31:35;;;;;;;8.3;7.5;;;;;;;15.75;82.83008;953.0614;;;;
2019/06/05 00:34:00;;;;;;;8.2;7.4;;;;;;;15.77;84.69043;952.9911;;;;
2019/06/05 00:36:25;;;;;;;8.3;7.5;;;;;;;15.75;84.62793;953.0187;;;;
2019/06/05 00:38:50;;;;;;;8;7.2;;;;;;;15.72;83;953.0012;;;;
2019/06/05 00:41:16;;;;;;;8;7.3;;;;;;;15.71;81.51367;952.9903;;;;
2019/06/05 00:43:41;;;;;;;8.7;7.9;;;;;;;15.67;81.78711;952.9739;;;;
2019/06/05 00:46:06;;;;;;;8.9;7.7;;;;;;;15.64;82.35254;953.0214;;;;
2019/06/05 00:48:31;;;;;;;8.8;8;;;;;;;15.59;84.27051;952.993;;;;
2019/06/05 00:50:57;;;;;;;9.6;7.7;;;;;;;15.55;85.86035;953.0121;;;;
2019/06/05 00:53:22;;;;;;;8.6;7.7;;;;;;;15.53;86.16016;953.0449;;;;
2019/06/05 00:55:47;;;;;;;9.2;7.5;;;;;;;15.51;86.55371;952.9697;;;;
2019/06/05 00:58:12;;;;;;;9;8.1;;;;;;;15.47;86.73145;953.0056;;;;
2019/06/05 01:00:39;;;;;;;10.8;8;;;;;;;15.42;86.94434;952.9177;;;;
2019/06/05 01:03:04;;;;;;;9.7;8.3;;;;;;;15.34;86.50684;952.9677;;;;
2019/06/05 01:05:30;;;;;;;9.8;8.1;;;;;;;15.32;86.15332;952.9231;;;;
2019/06/05 01:07:56;;;;;;;8.7;7.8;;;;;;;15.27;86.59961;952.9769;;;;
2019/06/05 01:10:21;;;;;;;9.5;8.5;;;;;;;15.26;86.42285;952.866;;;;
2019/06/05 01:12:47;;;;;;;9.1;8.2;;;;;;;15.2;86.57324;952.9041;;;;
2019/06/05 01:15:12;;;;;;;10;8.2;;;;;;;15.16;86.08887;952.9052;;;;
2019/06/05 01:17:39;;;;;;;9.3;7.9;;;;;;;15.1;85.99414;952.9433;;;;
2019/06/05 01:20:04;;;;;;;8.9;8.1;;;;;;;15.09;86.08594;952.9066;;;;
2019/06/05 01:22:31;;;;;;;10.5;8.4;;;;;;;15.08;86.28223;952.9501;;;;
2019/06/05 01:24:56;;;;;;;8.7;7.9;;;;;;;15.06;86.60547;952.9188;;;;
2019/06/05 01:27:24;;;;;;;9.3;8.4;;;;;;;15.01;87.34082;952.9517;;;;
2019/06/05 01:29:49;;;;;;;9.5;8.7;;;;;;;15;87.85059;952.8713;;;;
2019/06/05 01:32:17;;;;;;;9;8.1;;;;;;;14.99;87.93164;952.9497;;;;
2019/06/05 01:34:42;;;;;;;10;9;;;;;;;14.94;88.90039;952.9608;;;;
2019/06/05 01:37:13;;;;;;;9.8;8.8;;;;;;;14.88;89.20215;952.8403;;;;
2019/06/05 01:39:32;;;;;;;10.1;8.8;;;;;;;;;;;;;
2019/06/05 01:41:57;;;;;;;10.4;9.4;;;;;;;;;;;;;
2019/06/05 01:44:22;;;;;;;10.2;9.2;;;;;;;;;;;;;
2019/06/05 01:46:48;;;;;;;10;8.7;;;;;;;;;;;;;
2019/06/05 01:49:12;;;;;;;10.5;9.4;;;;;;;;;;;;;
2019/06/05 01:51:37;;;;;;;12.9;9;;;;;;;;;;;;;
2019/06/05 01:54:03;;;;;;;9.7;8.9;;;;;;;;;;;;;
2019/06/05 01:56:28;;;;;;;10;9;;;;;;;;;;;;;
2019/06/05 01:58:53;;;;;;;10;9.1;;;;;;;;;;;;;
2019/06/05 02:01:19;;;;;;;9.8;8.8;;;;;;;;;;;;;
2019/06/05 02:03:44;;;;;;;10.1;9.2;;;;;;;;;;;;;
2019/06/05 02:06:09;;;;;;;10.8;9.8;;;;;;;;;;;;;
2019/06/05 02:08:34;;;;;;;11.8;10.6;;;;;;;;;;;;;
2019/06/05 02:10:59;;;;;;;11.7;10.5;;;;;;;;;;;;;
2019/06/05 02:13:24;;;;;;;11.5;10.3;;;;;;;;;;;;;
2019/06/05 02:15:51;;;;;;;12;10.9;;;;;;;;;;;;;
2019/06/05 02:18:16;;;;;;;11.6;10.5;;;;;;;;;;;;;
2019/06/05 02:20:41;;;;;;;12;10.9;;;;;;;;;;;;;
2019/06/05 02:23:07;;;;;;;11.8;10.6;;;;;;;;;;;;;
2019/06/05 02:25:31;;;;;;;12;10.7;;;;;;;;;;;;;
2019/06/05 02:27:56;;;;;;;11.4;10.2;;;;;;;;;;;;;
2019/06/05 02:30:21;;;;;;;11.3;10.2;;;;;;;;;;;;;
2019/06/05 02:32:47;;;;;;;10.6;9.6;;;;;;;;;;;;;
2019/06/05 02:35:12;;;;;;;12.3;11.2;;;;;;;;;;;;;
2019/06/05 02:37:38;;;;;;;12.1;11;;;;;;;;;;;;;
2019/06/05 02:40:03;;;;;;;13.2;11.9;;;;;;;;;;;;;
2019/06/05 02:42:28;;;;;;;12.6;11.4;;;;;;;;;;;;;
2019/06/05 02:44:53;;;;;;;12;10.9;;;;;;;;;;;;;
2019/06/05 02:47:20;;;;;;;11.9;10.8;;;;;;;;;;;;;
2019/06/05 02:49:45;;;;;;;12.6;11.4;;;;;;;;;;;;;
2019/06/05 02:52:10;;;;;;;12.8;11.6;;;;;;;;;;;;;
2019/06/05 02:54:35;;;;;;;14.3;12.8;;;;;;;;;;;;;
2019/06/05 02:57:00;;;;;;;14;12.8;;;;;;;;;;;;;
2019/06/05 02:59:25;;;;;;;14.4;13.1;;;;;;;;;;;;;
2019/06/05 03:01:50;;;;;;;15;13.6;;;;;;;;;;;;;
2019/06/05 03:04:15;;;;;;;15.5;14.1;;;;;;;;;;;;;
2019/06/05 03:06:40;;;;;;;16.4;14.8;;;;;;;;;;;;;
2019/06/05 03:09:05;;;;;;;15.8;14.3;;;;;;;;;;;;;
2019/06/05 03:11:31;;;;;;;14.9;13.5;;;;;;;;;;;;;
2019/06/05 03:13:57;;;;;;;14.8;13.3;;;;;;;;;;;;;
2019/06/05 03:16:23;;;;;;;15;13.5;;;;;;;;;;;;;
2019/06/05 03:18:48;;;;;;;14.4;13;;;;;;;;;;;;;
2019/06/05 03:21:14;;;;;;;15.2;13.7;;;;;;;;;;;;;
2019/06/05 03:23:39;;;;;;;16.1;14.4;;;;;;;;;;;;;
2019/06/05 03:26:05;;;;;;;16.6;15;;;;;;;;;;;;;
2019/06/05 03:28:30;;;;;;;16;14.5;;;;;;;;;;;;;
2019/06/05 03:30:55;;;;;;;16.4;14.8;;;;;;;;;;;;;
2019/06/05 03:33:20;;;;;;;15.9;14.4;;;;;;;;;;;;;
2019/06/05 03:35:45;;;;;;;16.8;14.6;;;;;;;;;;;;;
2019/06/05 03:38:10;;;;;;;16.6;14.9;;;;;;;;;;;;;
2019/06/05 03:40:36;;;;;;;14.4;13.1;;;;;;;;;;;;;
2019/06/05 03:43:01;;;;;;;13.8;12.6;;;;;;;;;;;;;
2019/06/05 03:45:38;;;;;;;14.2;12.8;;;;;;;;;;;;;
2019/06/05 03:48:05;;;;;;;14.9;13.4;;;;;;;;;;;;;
2019/06/05 03:50:28;;;;;;;17;13.2;;;;;;;;;;;;;
2019/06/05 03:52:53;;;;;;;14.6;13.1;;;;;;;;;;;;;
2019/06/05 03:55:18;;;;;;;14.7;12.4;;;;;;;;;;;;;
2019/06/05 03:57:42;;;;;;;13.1;11.7;;;;;;;;;;;;;
2019/06/05 04:02:28;;;;;;;14.9;13.4;;;;;;;14.34;93.63184;953.1685;;;;
2019/06/05 04:04:53;;;;;;;15.4;13.9;;;;;;;14.44;93.08301;953.2197;;;;
2019/06/05 04:07:18;;;;;;;16.3;14.6;;;;;;;14.41;91.65723;953.3187;;;;
2019/06/05 04:09:49;;;;;;;18.4;16;;;;;;;14.34;90.65039;953.3535;;;;
2019/06/05 04:12:16;;;;;;;18.7;16.4;;;;;;;14.13;90.71289;953.4626;;;;
2019/06/05 04:14:41;;;;;;;18.4;16.6;;;;;;;14.26;90.0166;953.4072;;;;
2019/06/05 04:17:06;;;;;;;18.1;15.3;;;;;;;14.39;89.16211;953.2991;;;;
2019/06/05 04:19:38;;;;;;;16.9;15.2;;;;;;;14.53;88.9209;953.2555;;;;
2019/06/05 04:22:03;;;;;;;16.8;15;;;;;;;14.66;88.80859;953.2729;;;;
2019/06/05 04:24:28;;;;;;;17.6;15.9;;;;;;;14.66;89.27344;953.3335;;;;
2019/06/05 04:26:53;;;;;;;16.1;14.6;;;;;;;;;;;;;
2019/06/05 04:29:19;;;;;;;15.1;13.7;;;;;;;;;;;;;
2019/06/05 04:31:44;;;;;;;16.8;14.9;;;;;;;;;;;;;
2019/06/05 04:34:09;;;;;;;15;13.5;;;;;;;;;;;;;
2019/06/05 04:36:34;;;;;;;18.3;14.1;;;;;;;;;;;;;
2019/06/05 04:39:00;;;;;;;14.5;13.2;;;;;;;;;;;;;
2019/06/05 04:41:32;;;;;;;16.8;15.1;;;;;;;;;;;;;
2019/06/05 04:43:57;;;;;;;15.8;14.2;;;;;;;;;;;;;
2019/06/05 04:46:22;;;;;;;15.1;13.6;;;;;;;;;;;;;
2019/06/05 04:48:50;;;;;;;16.7;14.2;;;;;;;;;;;;;
2019/06/05 04:51:15;;;;;;;15.4;13;;;;;;;;;;;;;
2019/06/05 04:53:41;;;;;;;15.5;13.9;;;;;;;;;;;;;
2019/06/05 04:56:06;;;;;;;14.3;12.8;;;;;;;;;;;;;
2019/06/05 04:58:32;;;;;;;14.6;12.7;;;;;;;;;;;;;
2019/06/05 05:00:57;;;;;;;14.9;12.6;;;;;;;;;;;;;
2019/06/05 05:03:22;;;;;;;18.1;15.2;;;;;;;;;;;;;
2019/06/05 05:05:47;;;;;;;17.1;15.4;;;;;;;;;;;;;
2019/06/05 05:08:12;;;;;;;16.6;14.9;;;;;;;;;;;;;
2019/06/05 05:10:38;;;;;;;18.1;15.1;;;;;;;;;;;;;
2019/06/05 05:13:03;;;;;;;18.1;16.1;;;;;;;;;;;;;
2019/06/05 05:15:28;;;;;;;16.8;14.4;;;;;;;;;;;;;
2019/06/05 05:17:53;;;;;;;16.6;14;;;;;;;;;;;;;
2019/06/05 05:20:18;;;;;;;16.2;14;;;;;;;;;;;;;
2019/06/05 05:22:43;;;;;;;15.6;14;;;;;;;;;;;;;
2019/06/05 05:25:08;;;;;;;16.6;14.8;;;;;;;;;;;;;
2019/06/05 05:27:33;;;;;;;19.9;17.3;;;;;;;;;;;;;
2019/06/05 05:29:59;;;;;;;20.7;18.1;;;;;;;;;;;;;
2019/06/05 05:32:23;;;;;;;19.4;17.3;;;;;;;;;;;;;
2019/06/05 05:34:48;;;;;;;19.2;16.7;;;;;;;;;;;;;
2019/06/05 05:37:14;;;;;;;20.4;17.8;;;;;;;;;;;;;
2019/06/05 05:39:39;;;;;;;19.8;17.7;;;;;;;;;;;;;
2019/06/05 05:42:04;;;;;;;20.3;17.9;;;;;;;;;;;;;
2019/06/05 05:44:29;;;;;;;21.8;18.1;;;;;;;;;;;;;
2019/06/05 05:46:55;;;;;;;21.5;19.2;;;;;;;;;;;;;
2019/06/05 05:49:20;;;;;;;21.7;19.6;;;;;;;;;;;;;
2019/06/05 05:51:45;;;;;;;21.7;19.6;;;;;;;;;;;;;
2019/06/05 05:54:10;;;;;;;23.6;21.1;;;;;;;;;;;;;
2019/06/05 05:56:36;;;;;;;22.6;20.4;;;;;;;;;;;;;
2019/06/05 05:59:01;;;;;;;21.3;19.3;;;;;;;;;;;;;
2019/06/05 06:01:27;;;;;;;22.8;18.1;;;;;;;;;;;;;
2019/06/05 06:04:01;;;;;;;20.1;18;;;;;;;;;;;;;
2019/06/05 06:06:36;;;;;;;21.1;17.8;;;;;;;;;;;;;
2019/06/05 06:09:00;;;;;;;20;17.3;;;;;;;;;;;;;
2019/06/05 06:11:28;;;;;;;18.8;16.7;;;;;;;;;;;;;
2019/06/05 06:13:53;;;;;;;17.1;15.4;;;;;;;;;;;;;
2019/06/05 06:16:20;;;;;;;19.1;15.7;;;;;;;;;;;;;
2019/06/05 06:18:45;;;;;;;19.2;16.2;;;;;;;;;;;;;
2019/06/05 06:21:11;;;;;;;16.9;14.5;;;;;;;;;;;;;
2019/06/05 06:23:36;;;;;;;16.5;13.9;;;;;;;;;;;;;
2019/06/05 06:26:01;;;;;;;16.9;14.5;;;;;;;;;;;;;
2019/06/05 06:28:26;;;;;;;13.8;12.4;;;;;;;;;;;;;
2019/06/05 06:30:51;;;;;;;13.9;12.4;;;;;;;;;;;;;
2019/06/05 06:33:18;;;;;;;13.2;11.8;;;;;;;;;;;;;
2019/06/05 06:35:43;;;;;;;13.1;11.8;;;;;;;;;;;;;
2019/06/05 06:38:08;;;;;;;15.5;12.3;;;;;;;;;;;;;
2019/06/05 06:40:34;;;;;;;14.4;12.6;;;;;;;;;;;;;
2019/06/05 06:42:59;;;;;;;14.9;11.8;;;;;;;;;;;;;
2019/06/05 06:45:25;;;;;;;13.1;11.8;;;;;;;;;;;;;
2019/06/05 06:50:18;;;;;;;12;10.7;;;;;;;;;;;;;
2019/06/05 06:52:44;;;;;;;16.2;12.8;;;;;;;;;;;;;
2019/06/05 06:55:09;;;;;;;14.6;11.8;;;;;;;;;;;;;
2019/06/05 06:57:34;;;;;;;15.6;12;;;;;;;;;;;;;
2019/06/05 06:59:59;;;;;;;16.3;11.8;;;;;;;;;;;;;
2019/06/05 07:02:25;;;;;;;14.5;11.4;;;;;;;;;;;;;
2019/06/05 07:04:52;;;;;;;21.8;11.3;;;;;;;;;;;;;
2019/06/05 07:07:17;;;;;;;9.7;8.4;;;;;;;;;;;;;
2019/06/05 07:09:42;;;;;;;9.3;8.5;;;;;;;;;;;;;
2019/06/05 07:12:08;;;;;;;10.3;8.8;;;;;;;;;;;;;
2019/06/05 07:14:34;;;;;;;9.7;8.8;;;;;;;;;;;;;
2019/06/05 07:16:58;;;;;;;10.5;8.6;;;;;;;;;;;;;
2019/06/05 07:19:23;;;;;;;9.6;8.3;;;;;;;;;;;;;
2019/06/05 07:21:55;;;;;;;10.1;8.1;;;;;;;;;;;;;
2019/06/05 07:24:17;;;;;;;9.8;8.6;;;;;;;;;;;;;
2019/06/05 07:26:42;;;;;;;11.6;8.6;;;;;;;;;;;;;
2019/06/05 07:29:14;;;;;;;9.4;8.4;;;;;;;;;;;;;
2019/06/05 07:34:00;;;;;;;9.4;8.6;;;;;;;;;;;;;
2019/06/05 07:34:15;;;;;;;9.7;8.1;;;;;;;;;;;;;
2019/06/05 07:36:39;;;;;;;8.5;7.6;;;;;;;;;;;;;
2019/06/05 07:39:05;;;;;;;8.6;7.7;;;;;;;;;;;;;
2019/06/05 07:41:29;;;;;;;9.1;8.1;;;;;;;;;;;;;
2019/06/05 07:43:55;;;;;;;9.7;7.9;;;;;;;;;;;;;
2019/06/05 07:46:21;;;;;;;9.2;8.3;;;;;;;;;;;;;
2019/06/05 07:48:46;;;;;;;9.6;8.7;;;;;;;;;;;;;
2019/06/05 07:51:14;;;;;;;9.3;8.4;;;;;;;;;;;;;
2019/06/05 07:53:36;;;;;;;9.4;8.5;;;;;;;;;;;;;
2019/06/05 07:56:01;;;;;;;9.4;8.2;;;;;;;;;;;;;
2019/06/05 07:58:29;;;;;;;9.8;8.8;;;;;;;;;;;;;
2019/06/05 08:00:54;;;;;;;9.4;8.3;;;;;;;;;;;;;
2019/06/05 08:03:19;;;;;;;9.5;8.6;;;;;;;;;;;;;
2019/06/05 08:05:44;;;;;;;9.8;8.8;;;;;;;;;;;;;
2019/06/05 08:08:09;;;;;;;10.9;8.3;;;;;;;;;;;;;
2019/06/05 08:10:35;;;;;;;9.3;8.4;;;;;;;;;;;;;
2019/06/05 08:13:00;;;;;;;14;8.3;;;;;;;;;;;;;
2019/06/05 08:15:27;;;;;;;9.7;8.7;;;;;;;;;;;;;
2019/06/05 08:17:52;;;;;;;10;9;;;;;;;;;;;;;
2019/06/05 08:20:24;;;;;;;9.5;8.2;;;;;;;;;;;;;
2019/06/05 08:22:54;;;;;;;10.4;9.4;;;;;;;;;;;;;
2019/06/05 08:25:19;;;;;;;9.8;8.8;;;;;;;;;;;;;
2019/06/05 08:27:44;;;;;;;9;8.2;;;;;;;;;;;;;
2019/06/05 08:30:10;;;;;;;9.4;8.5;;;;;;;;;;;;;
2019/06/05 08:32:35;;;;;;;10.1;9.1;;;;;;;;;;;;;
2019/06/05 08:35:01;;;;;;;10.3;8.7;;;;;;;;;;;;;
2019/06/05 08:37:26;;;;;;;9.4;8.2;;;;;;;;;;;;;
2019/06/05 08:39:52;;;;;;;11.7;8.3;;;;;;;;;;;;;
2019/06/05 08:42:16;;;;;;;10.3;9;;;;;;;;;;;;;
2019/06/05 08:44:41;;;;;;;10.6;8.6;;;;;;;;;;;;;
2019/06/05 08:47:07;;;;;;;12.7;9.3;;;;;;;;;;;;;
2019/06/05 08:49:32;;;;;;;9.8;8.5;;;;;;;;;;;;;
2019/06/05 08:51:57;;;;;;;13.1;9.1;;;;;;;;;;;;;
2019/06/05 08:54:22;;;;;;;10.4;9.2;;;;;;;;;;;;;
2019/06/05 08:56:49;;;;;;;11.2;8.9;;;;;;;;;;;;;
2019/06/05 08:59:16;;;;;;;9.7;8.7;;;;;;;;;;;;;
2019/06/05 09:01:40;;;;;;;10;8.6;;;;;;;;;;;;;
2019/06/05 09:04:05;;;;;;;14.2;8.4;;;;;;;;;;;;;
2019/06/05 09:06:30;;;;;;;10.9;8.7;;;;;;;;;;;;;
2019/06/05 09:08:57;;;;;;;10.3;8.6;;;;;;;;;;;;;
2019/06/05 09:11:26;;;;;;;11;8.6;;;;;;;;;;;;;
2019/06/05 09:13:48;;;;;;;10;8.7;;;;;;;;;;;;;
2019/06/05 09:16:13;;;;;;;10;8.8;;;;;;;;;;;;;
2019/06/05 09:18:38;;;;;;;10.7;8.3;;;;;;;;;;;;;
2019/06/05 09:21:03;;;;;;;10.5;9.5;;;;;;;;;;;;;
2019/06/05 09:23:28;;;;;;;10.7;8.6;;;;;;;;;;;;;
2019/06/05 09:25:53;;;;;;;11.1;9.1;;;;;;;;;;;;;
2019/06/05 09:28:18;;;;;;;11;8.8;;;;;;;;;;;;;
2019/06/05 09:30:44;;;;;;;15.1;9.1;;;;;;;;;;;;;
2019/06/05 09:33:10;;;;;;;10.3;8.8;;;;;;;;;;;;;
2019/06/05 09:38:04;;;;;;;12.1;8.8;;;;;;;;;;;;;
2019/06/05 09:40:29;;;;;;;12;9.8;;;;;;;;;;;;;
2019/06/05 09:42:54;;;;;;;9.7;8.7;;;;;;;;;;;;;
2019/06/05 09:45:19;;;;;;;10.4;9.5;;;;;;;;;;;;;
2019/06/05 09:47:44;;;;;;;11.1;8.4;;;;;;;;;;;;;
2019/06/05 09:50:11;;;;;;;11.6;8.7;;;;;;;;;;;;;
2019/06/05 09:52:37;;;;;;;12;8.4;;;;;;;;;;;;;
2019/06/05 09:55:01;;;;;;;8.6;7.7;;;;;;;;;;;;;
2019/06/05 09:57:26;;;;;;;8.2;7.3;;;;;;;;;;;;;
2019/06/05 09:59:53;;;;;;;8.5;7.4;;;;;;;;;;;;;
2019/06/05 10:02:18;;;;;;;12.2;7.6;;;;;;;;;;;;;
2019/06/05 10:04:47;;;;;;;9.3;8.4;;;;;;;;;;;;;
2019/06/05 10:07:10;;;;;;;13.3;8.1;;;;;;;;;;;;;
2019/06/05 10:09:37;;;;;;;12.8;8.7;;;;;;;;;;;;;
2019/06/05 10:12:03;;;;;;;12.3;8.7;;;;;;;;;;;;;
2019/06/05 10:14:27;;;;;;;8.6;7.8;;;;;;;;;;;;;
2019/06/05 10:16:53;;;;;;;11.4;7.8;;;;;;;;;;;;;
2019/06/05 10:19:18;;;;;;;13.6;8.6;;;;;;;;;;;;;
2019/06/05 10:21:43;;;;;;;9.4;8.2;;;;;;;;;;;;;
2019/06/05 10:24:11;;;;;;;9.8;7.8;;;;;;;;;;;;;
2019/06/05 10:26:41;;;;;;;10.2;6.8;;;;;;;;;;;;;
2019/06/05 10:29:01;;;;;;;8.7;6.6;;;;;;;;;;;;;
2019/06/05 10:31:26;;;;;;;8.3;5.6;;;;;;;;;;;;;
2019/06/05 10:33:52;;;;;;;11.4;6.1;;;;;;;;;;;;;
2019/06/05 10:36:26;;;;;;;9.5;6.1;;;;;;;;;;;;;
2019/06/05 10:38:51;;;;;;;6.8;5.8;;;;;;;;;;;;;
2019/06/05 10:41:16;;;;;;;7.5;5.5;;;;;;;;;;;;;
2019/06/05 10:43:42;;;;;;;8.9;5.6;;;;;;;;;;;;;
2019/06/05 10:46:07;;;;;;;6.2;5.6;;;;;;;;;;;;;
2019/06/05 10:48:33;;;;;;;6.9;5.8;;;;;;;;;;;;;
2019/06/05 10:51:04;;;;;;;6.9;5.6;;;;;;;;;;;;;
2019/06/05 10:53:36;;;;;;;10.3;6.3;;;;;;;;;;;;;
2019/06/05 10:55:58;;;;;;;6;5.5;;;;;;;;;;;;;
2019/06/05 10:58:23;;;;;;;6.5;5.5;;;;;;;;;;;;;
2019/06/05 11:00:48;;;;;;;7;5;;;;;;;;;;;;;
2019/06/05 11:03:15;;;;;;;5.8;5;;;;;;;;;;;;;
2019/06/05 11:05:40;;;;;;;6.4;5;;;;;;;;;;;;;
2019/06/05 11:08:18;;;;;;;5.6;5;;;;;;;;;;;;;
2019/06/05 11:10:40;;;;;;;7.4;5.8;;;;;;;;;;;;;
2019/06/05 11:13:05;;;;;;;6.8;5.4;;;;;;;;;;;;;
2019/06/05 11:15:30;;;;;;;7.6;5.4;;;;;;;;;;;;;
2019/06/05 11:18:02;;;;;;;8.5;5.6;;;;;;;;;;;;;
2019/06/05 11:20:21;;;;;;;8.1;5.2;;;;;;;;;;;;;
2019/06/05 11:22:48;;;;;;;5.7;5.2;;;;;;;;;;;;;
2019/06/05 11:25:12;;;;;;;7.3;5.1;;;;;;;;;;;;;
2019/06/05 11:27:56;;;;;;;6;5.5;;;;;;;;;;;;;
2019/06/05 11:30:16;;;;;;;5.8;5.3;;;;;;;;;;;;;
2019/06/05 11:32:42;;;;;;;6.9;6.2;;;;;;;;;;;;;
2019/06/05 11:35:07;;;;;;;8.4;5.3;;;;;;;;;;;;;
2019/06/05 11:37:32;;;;;;;6.7;5.9;;;;;;;;;;;;;
2019/06/05 11:39:57;;;;;;;9;6;;;;;;;;;;;;;
2019/06/05 11:42:22;;;;;;;6.3;4.9;;;;;;;;;;;;;
2019/06/05 11:44:47;;;;;;;5.4;4.4;;;;;;;;;;;;;
2019/06/05 11:47:12;;;;;;;5.3;4.8;;;;;;;;;;;;;
2019/06/05 11:49:37;;;;;;;4.9;4.4;;;;;;;;;;;;;
2019/06/05 11:52:02;;;;;;;7.8;5.3;;;;;;;;;;;;;
2019/06/05 11:54:27;;;;;;;4.9;4.5;;;;;;;;;;;;;
2019/06/05 11:56:52;;;;;;;4.7;3.8;;;;;;;;;;;;;
2019/06/05 12:01:45;;;;;;;9.6;4.2;;;;;;;;;;;;;
2019/06/05 12:04:11;;;;;;;5.1;3.8;;;;;;;;;;;;;
2019/06/05 12:06:36;;;;;;;3.9;3.5;;;;;;;;;;;;;
2019/06/05 12:09:02;;;;;;;5.9;4.1;;;;;;;;;;;;;
2019/06/05 12:11:27;;;;;;;4.9;4.1;;;;;;;;;;;;;
2019/06/05 12:13:52;;;;;;;5.9;4.5;;;;;;;;;;;;;
2019/06/05 12:16:17;;;;;;;5.3;4.2;;;;;;;;;;;;;
2019/06/05 12:18:43;;;;;;;5;4.5;;;;;;;;;;;;;
2019/06/05 12:21:08;;;;;;;4.7;4.3;;;;;;;;;;;;;
2019/06/05 12:23:34;;;;;;;5.3;4.1;;;;;;;;;;;;;
2019/06/05 12:25:59;;;;;;;5.1;4.4;;;;;;;;;;;;;
2019/06/05 12:28:25;;;;;;;4.6;4.2;;;;;;;;;;;;;
2019/06/05 12:30:50;;;;;;;4.2;3.8;;;;;;;;;;;;;
2019/06/05 12:33:16;;;;;;;4.6;3.9;;;;;;;;;;;;;
2019/06/05 12:35:41;;;;;;;4.1;3.7;;;;;;;;;;;;;
2019/06/05 12:38:08;;;;;;;4.2;3.7;;;;;;;;;;;;;
2019/06/05 12:40:33;;;;;;;5.1;3.4;;;;;;;;;;;;;
2019/06/05 12:42:59;;;;;;;3.9;3.5;;;;;;;;;;;;;
2019/06/05 12:45:24;;;;;;;4.1;3.7;;;;;;;;;;;;;
2019/06/05 12:47:49;;;;;;;6;4.5;;;;;;;;;;;;;
2019/06/05 12:50:14;;;;;;;5.8;4.4;;;;;;;;;;;;;
2019/06/05 12:52:40;;;;;;;4.8;4.1;;;;;;;;;;;;;
2019/06/05 12:55:04;;;;;;;5.7;4.1;;;;;;;;;;;;;
2019/06/05 12:57:30;;;;;;;5.1;4.6;;;;;;;;;;;;;
2019/06/05 12:59:55;;;;;;;4.4;4;;;;;;;;;;;;;
2019/06/05 13:02:20;;;;;;;4.6;4.2;;;;;;;;;;;;;
2019/06/05 13:04:46;;;;;;;4.8;3.9;;;;;;;;;;;;;
2019/06/05 13:07:11;;;;;;;6.2;3.6;;;;;;;;;;;;;
2019/06/05 13:09:37;;;;;;;10.6;4.3;;;;;;;;;;;;;
2019/06/05 13:12:01;;;;;;;9.1;4.5;;;;;;;;;;;;;
2019/06/05 13:14:26;;;;;;;11.8;4.7;;;;;;;;;;;;;
2019/06/05 13:16:52;;;;;;;10.1;4.4;;;;;;;;;;;;;
2019/06/05 13:19:17;;;;;;;10.1;4.1;;;;;;;;;;;;;
2019/06/05 13:21:44;;;;;;;10.7;4.2;;;;;;;;;;;;;
2019/06/05 13:24:09;;;;;;;7.1;3.9;;;;;;;;;;;;;
2019/06/05 13:26:34;;;;;;;5.1;3.3;;;;;;;;;;;;;
2019/06/05 13:28:59;;;;;;;9.3;4.6;;;;;;;;;;;;;
2019/06/05 13:31:24;;;;;;;11.8;4.3;;;;;;;;;;;;;
2019/06/05 13:33:51;;;;;;;8.8;4;;;;;;;;;;;;;
2019/06/05 13:36:15;;;;;;;14.4;4.3;;;;;;;;;;;;;
2019/06/05 13:38:42;;;;;;;10.1;4.5;;;;;;;;;;;;;
2019/06/05 13:41:06;;;;;;;8.2;4.1;;;;;;;;;;;;;
2019/06/05 13:43:32;;;;;;;4.1;3.7;;;;;;;;;;;;;
2019/06/05 13:45:57;;;;;;;12.3;4.2;;;;;;;;;;;;;
2019/06/05 13:48:22;;;;;;;7.9;3.9;;;;;;;;;;;;;
2019/06/05 13:50:48;;;;;;;4.7;3.4;;;;;;;;;;;;;
2019/06/05 13:53:12;;;;;;;4.5;3.5;;;;;;;;;;;;;
2019/06/05 13:55:38;;;;;;;9.3;3.4;;;;;;;;;;;;;
2019/06/05 13:58:03;;;;;;;3.5;3.2;;;;;;;;;;;;;
2019/06/05 14:00:28;;;;;;;5.2;3.4;;;;;;;;;;;;;
2019/06/05 14:02:53;;;;;;;3.7;3.1;;;;;;;;;;;;;
2019/06/05 14:05:19;;;;;;;4;3.1;;;;;;;;;;;;;
2019/06/05 14:07:44;;;;;;;6.4;3.1;;;;;;;;;;;;;
2019/06/05 14:10:09;;;;;;;6.2;3.4;;;;;;;;;;;;;
2019/06/05 14:12:36;;;;;;;4.6;3.2;;;;;;;;;;;;;
2019/06/05 14:15:06;;;;;;;6;3.6;;;;;;;;;;;;;
2019/06/05 14:17:31;;;;;;;14.2;4.1;;;;;;;;;;;;;
2019/06/05 14:19:57;;;;;;;10.9;3.8;;;;;;;;;;;;;
2019/06/05 14:22:22;;;;;;;8.7;3.6;;;;;;;;;;;;;
2019/06/05 14:24:47;;;;;;;5.6;3.9;;;;;;;;;;;;;
2019/06/05 14:27:12;;;;;;;13.8;4.1;;;;;;;;;;;;;
2019/06/05 14:29:37;;;;;;;3.2;3;;;;;;;;;;;;;
2019/06/05 14:32:02;;;;;;;5.8;3.4;;;;;;;;;;;;;
2019/06/05 14:34:28;;;;;;;4.4;3.5;;;;;;;;;;;;;
2019/06/05 14:36:53;;;;;;;6.3;3.5;;;;;;;;;;;;;
2019/06/05 14:39:21;;;;;;;5.6;3.4;;;;;;;;;;;;;
2019/06/05 14:41:53;;;;;;;6.5;3.6;;;;;;;;;;;;;
2019/06/05 14:44:22;;;;;;;4.9;3.3;;;;;;;;;;;;;
2019/06/05 14:46:48;;;;;;;3.4;3.1;;;;;;;;;;;;;
2019/06/05 14:49:14;;;;;;;5.5;3.2;;;;;;;;;;;;;
2019/06/05 14:51:39;;;;;;;4.1;3.6;;;;;;;;;;;;;
2019/06/05 14:54:04;;;;;;;4.1;3.7;;;;;;;;;;;;;
2019/06/05 14:56:29;;;;;;;5.2;3.7;;;;;;;;;;;;;
2019/06/05 14:58:57;;;;;;;3.3;3;;;;;;;;;;;;;
2019/06/05 15:01:22;;;;;;;5.6;3.6;;;;;;;;;;;;;
2019/06/05 15:03:48;;;;;;;3.8;3.4;;;;;;;;;;;;;
2019/06/05 15:06:31;;;;;;;4.6;3.4;;;;;;;;;;;;;
2019/06/05 15:09:10;;;;;;;5.6;3.6;;;;;;;;;;;;;
2019/06/05 15:11:26;;;;;;;5.2;4;;;;;;;;;;;;;
2019/06/05 15:13:51;;;;;;;4.8;4.2;;;;;;;;;;;;;
2019/06/05 15:16:16;;;;;;;6.3;4.1;;;;;;;;;;;;;
2019/06/05 15:18:41;;;;;;;7.8;3.6;;;;;;;;;;;;;
2019/06/05 15:21:06;;;;;;;6.1;3.8;;;;;;;;;;;;;
2019/06/05 15:23:34;;;;;;;4.9;3.6;;;;;;;;;;;;;
2019/06/05 15:25:56;;;;;;;4.2;3.8;;;;;;;;;;;;;
2019/06/05 15:28:21;;;;;;;6.1;3.8;;;;;;;;;;;;;
2019/06/05 15:30:47;;;;;;;4.1;3.7;;;;;;;;;;;;;
2019/06/05 15:33:12;;;;;;;4.6;3.5;;;;;;;;;;;;;
2019/06/05 15:35:37;;;;;;;5.5;3.7;;;;;;;;;;;;;
2019/06/05 15:38:01;;;;;;;4.8;3.6;;;;;;;;;;;;;
2019/06/05 15:40:27;;;;;;;6.3;4;;;;;;;;;;;;;
2019/06/05 15:42:52;;;;;;;7.4;3.9;;;;;;;;;;;;;
2019/06/05 15:45:17;;;;;;;7;3.7;;;;;;;;;;;;;
2019/06/05 15:47:43;;;;;;;6.3;3.7;;;;;;;;;;;;;
2019/06/05 15:50:09;;;;;;;5;3.4;;;;;;;;;;;;;
2019/06/05 15:52:34;;;;;;;4.1;3.4;;;;;;;;;;;;;
2019/06/05 15:54:59;;;;;;;4.1;3.1;;;;;;;;;;;;;
2019/06/05 15:57:24;;;;;;;5.8;3.7;;;;;;;;;;;;;
2019/06/05 15:59:50;;;;;;;10.4;3.4;;;;;;;;;;;;;
2019/06/05 16:02:15;;;;;;;7.9;3.8;;;;;;;;;;;;;
2019/06/05 16:04:40;;;;;;;9.6;3.8;;;;;;;;;;;;;
2019/06/05 16:07:05;;;;;;;8.5;3.1;;;;;;;;;;;;;
2019/06/05 16:09:30;;;;;;;5.9;3;;;;;;;;;;;;;
2019/06/05 16:11:56;;;;;;;3.6;3;;;;;;;;;;;;;
2019/06/05 16:14:28;;;;;;;4.6;3.2;;;;;;;;;;;;;
2019/06/05 16:16:57;;;;;;;3.6;3;;;;;;;;;;;;;
2019/06/05 16:19:22;;;;;;;6.3;3.2;;;;;;;;;;;;;
2019/06/05 16:21:47;;;;;;;7.8;3.4;;;;;;;;;;;;;
2019/06/05 16:24:12;;;;;;;3.5;3.2;;;;;;;;;;;;;
2019/06/05 16:26:38;;;;;;;4.1;3.1;;;;;;;;;;;;;
2019/06/05 16:29:03;;;;;;;6.3;3.1;;;;;;;;;;;;;
2019/06/05 16:31:29;;;;;;;4.6;3;;;;;;;;;;;;;
2019/06/05 16:33:54;;;;;;;5.9;3.1;;;;;;;;;;;;;
2019/06/05 16:36:20;;;;;;;5.2;3;;;;;;;;;;;;;
2019/06/05 16:38:45;;;;;;;3.3;2.6;;;;;;;;;;;;;
2019/06/05 16:41:10;;;;;;;3.9;3;;;;;;;;;;;;;
2019/06/05 16:43:35;;;;;;;2.7;2.5;;;;;;;;;;;;;
2019/06/05 16:46:00;;;;;;;5.3;3.2;;;;;;;;;;;;;
2019/06/05 16:48:25;;;;;;;4.1;3.1;;;;;;;;;;;;;
2019/06/05 16:50:51;;;;;;;3.8;3;;;;;;;;;;;;;
2019/06/05 16:53:16;;;;;;;5.6;2.9;;;;;;;;;;;;;
2019/06/05 16:55:41;;;;;;;3.6;3.2;;;;;;;;;;;;;
2019/06/05 16:58:06;;;;;;;5;3.1;;;;;;;;;;;;;
2019/06/05 17:00:32;;;;;;;5.9;3.3;;;;;;;;;;;;;
2019/06/05 17:02:57;;;;;;;4.3;3;;;;;;;;;;;;;
2019/06/05 17:05:22;;;;;;;4.7;2.7;;;;;;;;;;;;;
2019/06/05 17:07:47;;;;;;;3.9;3.1;;;;;;;;;;;;;
2019/06/05 17:10:12;;;;;;;3.9;3.3;;;;;;;;;;;;;
2019/06/05 17:12:37;;;;;;;6.1;3.3;;;;;;;;;;;;;
2019/06/05 17:15:02;;;;;;;7.1;3.4;;;;;;;;;;;;;
2019/06/05 17:17:27;;;;;;;6;3.5;;;;;;;;;;;;;
2019/06/05 17:19:54;;;;;;;5.7;3.4;;;;;;;;;;;;;
2019/06/05 17:22:19;;;;;;;4.3;3.4;;;;;;;;;;;;;
2019/06/05 17:24:44;;;;;;;4.5;3.5;;;;;;;;;;;;;
2019/06/05 17:27:09;;;;;;;5.3;3.3;;;;;;;;;;;;;
2019/06/05 17:29:34;;;;;;;5.6;3.6;;;;;;;;;;;;;
2019/06/05 17:31:59;;;;;;;4.4;3.4;;;;;;;;;;;;;
2019/06/05 17:34:24;;;;;;;4.2;3.4;;;;;;;;;;;;;
2019/06/05 17:36:49;;;;;;;5.7;3.5;;;;;;;;;;;;;
2019/06/05 17:39:14;;;;;;;3.9;3.5;;;;;;;;;;;;;
2019/06/05 17:41:40;;;;;;;3.9;3.5;;;;;;;;;;;;;
2019/06/05 17:44:05;;;;;;;3.8;3.5;;;;;;;;;;;;;
2019/06/05 17:46:31;;;;;;;4.2;3.7;;;;;;;;;;;;;
2019/06/05 17:48:56;;;;;;;5.1;3.6;;;;;;;;;;;;;
2019/06/05 17:51:23;;;;;;;3.5;3.2;;;;;;;;;;;;;
2019/06/05 17:53:48;;;;;;;6.5;3.7;;;;;;;;;;;;;
2019/06/05 17:56:13;;;;;;;3.9;3.5;;;;;;;;;;;;;
2019/06/05 17:58:38;;;;;;;5.3;3.7;;;;;;;;;;;;;
2019/06/05 18:01:03;;;;;;;8.3;3.7;;;;;;;;;;;;;
2019/06/05 18:03:28;;;;;;;4.6;3.8;;;;;;;;;;;;;
2019/06/05 18:05:53;;;;;;;7.2;4.1;;;;;;;;;;;;;
2019/06/05 18:08:19;;;;;;;5.4;3.8;;;;;;;;;;;;;
2019/06/05 18:10:43;;;;;;;5.2;3.9;;;;;;;;;;;;;
2019/06/05 18:13:10;;;;;;;7.6;3.8;;;;;;;;;;;;;
2019/06/05 18:15:35;;;;;;;4.3;3.8;;;;;;;;;;;;;
2019/06/05 18:18:01;;;;;;;4.3;3.8;;;;;;;;;;;;;
2019/06/05 18:20:26;;;;;;;6.2;3.8;;;;;;;;;;;;;
2019/06/05 18:22:52;;;;;;;4.1;3.7;;;;;;;;;;;;;
2019/06/05 18:25:17;;;;;;;7.4;3.7;;;;;;;;;;;;;
2019/06/05 18:27:42;;;;;;;4.6;3.8;;;;;;;;;;;;;
2019/06/05 18:30:07;;;;;;;4;3.5;;;;;;;;;;;;;
2019/06/05 18:32:33;;;;;;;5;3.9;;;;;;;;;;;;;
2019/06/05 18:34:58;;;;;;;4.2;3.8;;;;;;;;;;;;;
2019/06/05 18:37:22;;;;;;;4.8;3.7;;;;;;;;;;;;;
2019/06/05 18:40:00;;;;;;;4.9;4;;;;;;;;;;;;;
2019/06/05 18:44:51;;;;;;;4.1;3.7;;;;;;;;;;;;;
2019/06/05 18:47:25;;;;;;;5.1;3.4;;;;;;;;;;;;;
2019/06/05 18:49:50;;;;;;;5.2;3.8;;;;;;;;;;;;;
2019/06/05 18:52:15;;;;;;;4;3.6;;;;;;;;;;;;;
2019/06/05 18:54:40;;;;;;;4.3;3.8;;;;;;;;;;;;;
2019/06/05 18:57:05;;;;;;;4.6;4.1;;;;;;;;;;;;;
2019/06/05 18:59:30;;;;;;;6.1;3.9;;;;;;;;;;;;;
2019/06/05 19:02:04;;;;;;;4.8;3.9;;;;;;;;;;;;;
2019/06/05 19:04:27;;;;;;;3.9;3.5;;;;;;;;;;;;;
2019/06/05 19:06:52;;;;;;;4.9;3.8;;;;;;;;;;;;;
2019/06/05 19:09:34;;;;;;;5.7;4;;;;;;;;;;;;;
2019/06/05 19:11:59;;;;;;;4.9;4.1;;;;;;;;;;;;;
2019/06/05 19:14:24;;;;;;;4.3;3.9;;;;;;;;;;;;;
2019/06/05 19:16:49;;;;;;;4.4;4;;;;;;;;;;;;;
2019/06/05 19:19:14;;;;;;;5.7;4.1;;;;;;;;;;;;;
2019/06/05 19:21:40;;;;;;;5;4;;;;;;;;;;;;;
2019/06/05 19:24:04;;;;;;;5.1;4.6;;;;;;;;;;;;;
2019/06/05 19:26:29;;;;;;;4.9;4.1;;;;;;;;;;;;;
2019/06/05 19:28:54;;;;;;;5.4;4.3;;;;;;;;;;;;;
2019/06/05 19:31:19;;;;;;;6.3;4.1;;;;;;;;;;;;;
2019/06/05 19:33:44;;;;;;;4.8;4.2;;;;;;;;;;;;;
2019/06/05 19:36:10;;;;;;;5.2;4;;;;;;;;;;;;;